sensor_id;sensor_type;location;lat;lon;timestamp;P1;durP1;ratioP1;P2;durP2;ratioP2
21786;SDS011;11055;50.870;4.316;2023-04-25T00:02:17;15.27;;;4.40;;
21786;SDS011;11055;50.870;4.316;2023-04-25T00:04:43;15.23;;;5.13;;
21786;SDS011;11055;50.870;4.316;2023-04-25T00:07:09;17.25;;;4.55;;
21786;SDS011;11055;50.870;4.316;2023-04-25T00:09:35;15.00;;;5.05;;
21786;SDS011;11055;50.870;4.316;2023-04-25T00:12:01;15.70;;;4.57;;
21786;SDS011;11055;50.870;4.316;2023-04-25T00:14:27;19.60;;;4.82;;
21786;SDS011;11055;50.870;4.316;2023-04-25T00:16:52;19.27;;;4.88;;
21786;SDS011;11055;50.870;4.316;2023-04-25T00:19:19;15.18;;;4.15;;
21786;SDS011;11055;50.870;4.316;2023-04-25T00:21:44;17.77;;;4.40;;
21786;SDS011;11055;50.870;4.316;2023-04-25T00:24:11;16.48;;;5.05;;
21786;SDS011;11055;50.870;4.316;2023-04-25T00:26:37;15.63;;;4.38;;
21786;SDS011;11055;50.870;4.316;2023-04-25T00:29:03;17.77;;;4.80;;
21786;SDS011;11055;50.870;4.316;2023-04-25T00:31:29;16.90;;;5.15;;
21786;SDS011;11055;50.870;4.316;2023-04-25T00:33:55;12.52;;;4.40;;
21786;SDS011;11055;50.870;4.316;2023-04-25T00:36:21;17.17;;;4.90;;
21786;SDS011;11055;50.870;4.316;2023-04-25T00:38:47;15.23;;;4.45;;
21786;SDS011;11055;50.870;4.316;2023-04-25T00:41:12;18.02;;;5.10;;
21786;SDS011;11055;50.870;4.316;2023-04-25T00:43:39;17.23;;;4.90;;
21786;SDS011;11055;50.870;4.316;2023-04-25T00:46:05;18.38;;;4.68;;
21786;SDS011;11055;50.870;4.316;2023-04-25T00:48:31;21.98;;;5.32;;
21786;SDS011;11055;50.870;4.316;2023-04-25T00:50:57;16.05;;;4.82;;
21786;SDS011;11055;50.870;4.316;2023-04-25T00:53:25;18.38;;;4.95;;
21786;SDS011;11055;50.870;4.316;2023-04-25T00:55:52;22.35;;;5.10;;
21786;SDS011;11055;50.870;4.316;2023-04-25T00:58:19;21.25;;;5.75;;
21786;SDS011;11055;50.870;4.316;2023-04-25T01:00:46;17.80;;;5.05;;
21786;SDS011;11055;50.870;4.316;2023-04-25T01:03:13;13.98;;;4.55;;
21786;SDS011;11055;50.870;4.316;2023-04-25T01:05:41;17.45;;;5.30;;
21786;SDS011;11055;50.870;4.316;2023-04-25T01:08:08;17.00;;;5.15;;
21786;SDS011;11055;50.870;4.316;2023-04-25T01:10:33;21.10;;;5.75;;
21786;SDS011;11055;50.870;4.316;2023-04-25T01:12:59;23.10;;;5.40;;
21786;SDS011;11055;50.870;4.316;2023-04-25T01:15:25;15.23;;;5.30;;
21786;SDS011;11055;50.870;4.316;2023-04-25T01:17:51;17.48;;;5.28;;
21786;SDS011;11055;50.870;4.316;2023-04-25T01:20:18;14.20;;;4.65;;
21786;SDS011;11055;50.870;4.316;2023-04-25T01:22:46;18.10;;;5.47;;
21786;SDS011;11055;50.870;4.316;2023-04-25T01:25:12;18.02;;;5.03;;
21786;SDS011;11055;50.870;4.316;2023-04-25T01:27:37;19.83;;;5.18;;
21786;SDS011;11055;50.870;4.316;2023-04-25T01:30:04;15.27;;;5.28;;
21786;SDS011;11055;50.870;4.316;2023-04-25T01:32:32;16.38;;;5.45;;
21786;SDS011;11055;50.870;4.316;2023-04-25T01:35:04;13.43;;;5.13;;
21786;SDS011;11055;50.870;4.316;2023-04-25T01:37:34;17.45;;;5.70;;
21786;SDS011;11055;50.870;4.316;2023-04-25T01:40:01;17.17;;;5.15;;
21786;SDS011;11055;50.870;4.316;2023-04-25T01:42:27;18.80;;;4.90;;
21786;SDS011;11055;50.870;4.316;2023-04-25T01:44:53;18.05;;;5.22;;
21786;SDS011;11055;50.870;4.316;2023-04-25T01:47:19;20.60;;;5.80;;
21786;SDS011;11055;50.870;4.316;2023-04-25T01:49:44;17.38;;;5.13;;
21786;SDS011;11055;50.870;4.316;2023-04-25T01:52:10;18.75;;;5.35;;
21786;SDS011;11055;50.870;4.316;2023-04-25T01:54:35;17.00;;;5.70;;
21786;SDS011;11055;50.870;4.316;2023-04-25T01:57:01;15.45;;;5.68;;
21786;SDS011;11055;50.870;4.316;2023-04-25T01:59:27;14.95;;;5.47;;
21786;SDS011;11055;50.870;4.316;2023-04-25T02:01:53;27.02;;;5.82;;
21786;SDS011;11055;50.870;4.316;2023-04-25T02:04:18;18.25;;;5.30;;
21786;SDS011;11055;50.870;4.316;2023-04-25T02:06:44;19.15;;;5.80;;
21786;SDS011;11055;50.870;4.316;2023-04-25T02:09:10;17.35;;;5.63;;
21786;SDS011;11055;50.870;4.316;2023-04-25T02:11:35;16.13;;;5.28;;
21786;SDS011;11055;50.870;4.316;2023-04-25T02:14:01;15.73;;;5.75;;
21786;SDS011;11055;50.870;4.316;2023-04-25T02:16:26;17.83;;;5.13;;
21786;SDS011;11055;50.870;4.316;2023-04-25T02:18:52;18.58;;;5.15;;
21786;SDS011;11055;50.870;4.316;2023-04-25T02:21:18;14.82;;;5.30;;
21786;SDS011;11055;50.870;4.316;2023-04-25T02:23:43;12.02;;;5.35;;
21786;SDS011;11055;50.870;4.316;2023-04-25T02:26:13;16.42;;;5.30;;
21786;SDS011;11055;50.870;4.316;2023-04-25T02:28:39;19.17;;;6.00;;
21786;SDS011;11055;50.870;4.316;2023-04-25T02:31:05;19.83;;;5.30;;
21786;SDS011;11055;50.870;4.316;2023-04-25T02:33:30;17.50;;;5.25;;
21786;SDS011;11055;50.870;4.316;2023-04-25T02:35:57;19.38;;;5.40;;
21786;SDS011;11055;50.870;4.316;2023-04-25T02:38:23;15.48;;;5.28;;
21786;SDS011;11055;50.870;4.316;2023-04-25T02:40:48;19.02;;;6.00;;
21786;SDS011;11055;50.870;4.316;2023-04-25T02:43:14;15.90;;;5.28;;
21786;SDS011;11055;50.870;4.316;2023-04-25T02:45:41;16.45;;;5.32;;
21786;SDS011;11055;50.870;4.316;2023-04-25T02:48:06;16.05;;;5.60;;
21786;SDS011;11055;50.870;4.316;2023-04-25T02:50:32;16.95;;;5.60;;
21786;SDS011;11055;50.870;4.316;2023-04-25T02:52:57;20.70;;;5.65;;
21786;SDS011;11055;50.870;4.316;2023-04-25T02:55:23;19.70;;;5.68;;
21786;SDS011;11055;50.870;4.316;2023-04-25T02:57:49;18.27;;;5.28;;
21786;SDS011;11055;50.870;4.316;2023-04-25T03:00:15;20.02;;;5.95;;
21786;SDS011;11055;50.870;4.316;2023-04-25T03:02:41;19.92;;;5.88;;
21786;SDS011;11055;50.870;4.316;2023-04-25T03:05:06;17.83;;;5.13;;
21786;SDS011;11055;50.870;4.316;2023-04-25T03:07:32;16.35;;;5.70;;
21786;SDS011;11055;50.870;4.316;2023-04-25T03:09:58;17.55;;;5.20;;
21786;SDS011;11055;50.870;4.316;2023-04-25T03:12:23;18.65;;;5.53;;
21786;SDS011;11055;50.870;4.316;2023-04-25T03:14:49;22.08;;;5.68;;
21786;SDS011;11055;50.870;4.316;2023-04-25T03:17:15;19.25;;;7.15;;
21786;SDS011;11055;50.870;4.316;2023-04-25T03:19:41;17.75;;;5.22;;
21786;SDS011;11055;50.870;4.316;2023-04-25T03:22:06;17.05;;;5.03;;
21786;SDS011;11055;50.870;4.316;2023-04-25T03:24:32;18.30;;;5.38;;
21786;SDS011;11055;50.870;4.316;2023-04-25T03:26:57;19.17;;;5.47;;
21786;SDS011;11055;50.870;4.316;2023-04-25T03:29:23;16.58;;;5.53;;
21786;SDS011;11055;50.870;4.316;2023-04-25T03:31:51;21.88;;;7.03;;
21786;SDS011;11055;50.870;4.316;2023-04-25T03:34:17;16.40;;;5.07;;
21786;SDS011;11055;50.870;4.316;2023-04-25T03:36:42;20.67;;;5.47;;
21786;SDS011;11055;50.870;4.316;2023-04-25T03:39:08;18.83;;;5.25;;
21786;SDS011;11055;50.870;4.316;2023-04-25T03:41:33;18.90;;;4.78;;
21786;SDS011;11055;50.870;4.316;2023-04-25T03:43:59;21.92;;;5.20;;
21786;SDS011;11055;50.870;4.316;2023-04-25T03:46:25;19.30;;;4.80;;
21786;SDS011;11055;50.870;4.316;2023-04-25T03:48:50;22.20;;;5.38;;
21786;SDS011;11055;50.870;4.316;2023-04-25T03:51:16;17.25;;;4.93;;
21786;SDS011;11055;50.870;4.316;2023-04-25T03:53:41;24.77;;;4.72;;
21786;SDS011;11055;50.870;4.316;2023-04-25T03:56:07;24.20;;;4.65;;
21786;SDS011;11055;50.870;4.316;2023-04-25T03:58:34;22.15;;;4.88;;
21786;SDS011;11055;50.870;4.316;2023-04-25T04:01:00;17.10;;;5.65;;
21786;SDS011;11055;50.870;4.316;2023-04-25T04:03:27;20.90;;;5.10;;
21786;SDS011;11055;50.870;4.316;2023-04-25T04:05:53;23.10;;;5.25;;
21786;SDS011;11055;50.870;4.316;2023-04-25T04:08:19;15.68;;;4.97;;
21786;SDS011;11055;50.870;4.316;2023-04-25T04:10:44;21.38;;;4.47;;
21786;SDS011;11055;50.870;4.316;2023-04-25T04:13:10;19.80;;;5.18;;
21786;SDS011;11055;50.870;4.316;2023-04-25T04:15:36;14.45;;;5.13;;
21786;SDS011;11055;50.870;4.316;2023-04-25T04:18:01;15.65;;;4.60;;
21786;SDS011;11055;50.870;4.316;2023-04-25T04:20:28;14.50;;;4.68;;
21786;SDS011;11055;50.870;4.316;2023-04-25T04:22:55;13.98;;;4.22;;
21786;SDS011;11055;50.870;4.316;2023-04-25T04:25:20;14.18;;;4.00;;
21786;SDS011;11055;50.870;4.316;2023-04-25T04:27:46;12.75;;;4.20;;
21786;SDS011;11055;50.870;4.316;2023-04-25T04:30:12;21.38;;;4.90;;
21786;SDS011;11055;50.870;4.316;2023-04-25T04:32:37;15.48;;;4.25;;
21786;SDS011;11055;50.870;4.316;2023-04-25T04:35:03;12.82;;;4.40;;
21786;SDS011;11055;50.870;4.316;2023-04-25T04:37:31;17.92;;;4.35;;
21786;SDS011;11055;50.870;4.316;2023-04-25T04:39:57;16.60;;;4.78;;
21786;SDS011;11055;50.870;4.316;2023-04-25T04:42:23;20.42;;;5.50;;
21786;SDS011;11055;50.870;4.316;2023-04-25T04:44:50;14.88;;;4.40;;
21786;SDS011;11055;50.870;4.316;2023-04-25T04:47:17;22.35;;;4.90;;
21786;SDS011;11055;50.870;4.316;2023-04-25T04:49:42;16.30;;;4.97;;
21786;SDS011;11055;50.870;4.316;2023-04-25T04:52:09;19.73;;;4.85;;
21786;SDS011;11055;50.870;4.316;2023-04-25T04:54:35;16.35;;;5.47;;
21786;SDS011;11055;50.870;4.316;2023-04-25T04:57:00;14.00;;;5.60;;
21786;SDS011;11055;50.870;4.316;2023-04-25T04:59:26;20.40;;;5.50;;
21786;SDS011;11055;50.870;4.316;2023-04-25T05:01:52;17.30;;;5.07;;
21786;SDS011;11055;50.870;4.316;2023-04-25T05:04:18;24.02;;;5.43;;
21786;SDS011;11055;50.870;4.316;2023-04-25T05:06:43;25.05;;;5.13;;
21786;SDS011;11055;50.870;4.316;2023-04-25T05:09:09;21.13;;;5.35;;
21786;SDS011;11055;50.870;4.316;2023-04-25T05:11:36;16.95;;;4.05;;
21786;SDS011;11055;50.870;4.316;2023-04-25T05:14:02;16.70;;;4.88;;
21786;SDS011;11055;50.870;4.316;2023-04-25T05:16:27;10.82;;;4.20;;
21786;SDS011;11055;50.870;4.316;2023-04-25T05:18:55;12.77;;;4.47;;
21786;SDS011;11055;50.870;4.316;2023-04-25T05:21:20;12.38;;;4.00;;
21786;SDS011;11055;50.870;4.316;2023-04-25T05:23:47;16.08;;;4.40;;
21786;SDS011;11055;50.870;4.316;2023-04-25T05:26:13;14.43;;;4.13;;
21786;SDS011;11055;50.870;4.316;2023-04-25T05:28:39;15.85;;;4.93;;
21786;SDS011;11055;50.870;4.316;2023-04-25T05:31:06;11.43;;;4.43;;
21786;SDS011;11055;50.870;4.316;2023-04-25T05:33:32;12.25;;;4.70;;
21786;SDS011;11055;50.870;4.316;2023-04-25T05:35:58;18.08;;;4.63;;
21786;SDS011;11055;50.870;4.316;2023-04-25T05:38:23;15.90;;;4.03;;
21786;SDS011;11055;50.870;4.316;2023-04-25T05:40:49;18.13;;;5.03;;
21786;SDS011;11055;50.870;4.316;2023-04-25T05:43:15;12.82;;;4.55;;
21786;SDS011;11055;50.870;4.316;2023-04-25T05:45:41;16.60;;;4.60;;
21786;SDS011;11055;50.870;4.316;2023-04-25T05:48:06;12.88;;;4.47;;
21786;SDS011;11055;50.870;4.316;2023-04-25T05:50:32;11.55;;;4.38;;
21786;SDS011;11055;50.870;4.316;2023-04-25T05:52:57;10.88;;;4.05;;
21786;SDS011;11055;50.870;4.316;2023-04-25T05:55:23;12.10;;;3.63;;
21786;SDS011;11055;50.870;4.316;2023-04-25T05:57:49;18.08;;;4.40;;
21786;SDS011;11055;50.870;4.316;2023-04-25T06:00:15;11.48;;;3.92;;
21786;SDS011;11055;50.870;4.316;2023-04-25T06:02:41;12.38;;;4.70;;
21786;SDS011;11055;50.870;4.316;2023-04-25T06:05:07;14.65;;;3.97;;
21786;SDS011;11055;50.870;4.316;2023-04-25T06:07:33;16.08;;;4.75;;
21786;SDS011;11055;50.870;4.316;2023-04-25T06:09:59;13.07;;;4.03;;
21786;SDS011;11055;50.870;4.316;2023-04-25T06:12:25;16.67;;;5.07;;
21786;SDS011;11055;50.870;4.316;2023-04-25T06:14:51;14.88;;;4.05;;
21786;SDS011;11055;50.870;4.316;2023-04-25T06:17:17;13.02;;;4.22;;
21786;SDS011;11055;50.870;4.316;2023-04-25T06:19:44;17.20;;;5.32;;
21786;SDS011;11055;50.870;4.316;2023-04-25T06:22:10;14.30;;;4.90;;
21786;SDS011;11055;50.870;4.316;2023-04-25T06:24:35;12.65;;;3.60;;
21786;SDS011;11055;50.870;4.316;2023-04-25T06:27:01;11.18;;;4.43;;
21786;SDS011;11055;50.870;4.316;2023-04-25T06:29:27;13.07;;;4.32;;
21786;SDS011;11055;50.870;4.316;2023-04-25T06:31:53;11.20;;;4.35;;
21786;SDS011;11055;50.870;4.316;2023-04-25T06:34:19;12.48;;;3.50;;
21786;SDS011;11055;50.870;4.316;2023-04-25T06:36:45;13.07;;;3.58;;
21786;SDS011;11055;50.870;4.316;2023-04-25T06:39:11;13.55;;;3.95;;
21786;SDS011;11055;50.870;4.316;2023-04-25T06:41:37;13.35;;;4.13;;
21786;SDS011;11055;50.870;4.316;2023-04-25T06:44:02;13.00;;;3.72;;
21786;SDS011;11055;50.870;4.316;2023-04-25T06:46:28;11.32;;;3.65;;
21786;SDS011;11055;50.870;4.316;2023-04-25T06:48:54;15.30;;;4.03;;
21786;SDS011;11055;50.870;4.316;2023-04-25T06:51:20;14.50;;;3.97;;
21786;SDS011;11055;50.870;4.316;2023-04-25T06:53:46;17.25;;;4.57;;
21786;SDS011;11055;50.870;4.316;2023-04-25T06:56:11;13.15;;;4.30;;
21786;SDS011;11055;50.870;4.316;2023-04-25T06:58:37;17.23;;;3.85;;
21786;SDS011;11055;50.870;4.316;2023-04-25T07:01:03;12.48;;;4.30;;
21786;SDS011;11055;50.870;4.316;2023-04-25T07:03:28;13.23;;;4.35;;
21786;SDS011;11055;50.870;4.316;2023-04-25T07:05:55;13.95;;;4.60;;
21786;SDS011;11055;50.870;4.316;2023-04-25T07:08:20;15.90;;;3.80;;
21786;SDS011;11055;50.870;4.316;2023-04-25T07:10:46;16.52;;;4.03;;
21786;SDS011;11055;50.870;4.316;2023-04-25T07:13:12;14.98;;;3.63;;
21786;SDS011;11055;50.870;4.316;2023-04-25T07:15:37;14.02;;;3.20;;
21786;SDS011;11055;50.870;4.316;2023-04-25T07:18:03;14.93;;;3.67;;
21786;SDS011;11055;50.870;4.316;2023-04-25T07:20:29;13.18;;;3.38;;
21786;SDS011;11055;50.870;4.316;2023-04-25T07:22:57;12.57;;;3.13;;
21786;SDS011;11055;50.870;4.316;2023-04-25T07:25:22;12.13;;;3.67;;
21786;SDS011;11055;50.870;4.316;2023-04-25T07:27:48;11.07;;;2.95;;
21786;SDS011;11055;50.870;4.316;2023-04-25T07:30:15;11.48;;;3.17;;
21786;SDS011;11055;50.870;4.316;2023-04-25T07:32:43;12.25;;;3.10;;
21786;SDS011;11055;50.870;4.316;2023-04-25T07:35:08;10.93;;;3.53;;
21786;SDS011;11055;50.870;4.316;2023-04-25T07:37:35;10.60;;;2.45;;
21786;SDS011;11055;50.870;4.316;2023-04-25T07:40:02;10.35;;;2.72;;
21786;SDS011;11055;50.870;4.316;2023-04-25T07:42:29;10.50;;;2.67;;
21786;SDS011;11055;50.870;4.316;2023-04-25T07:44:55;11.10;;;3.00;;
21786;SDS011;11055;50.870;4.316;2023-04-25T07:47:20;8.35;;;2.47;;
21786;SDS011;11055;50.870;4.316;2023-04-25T07:49:46;8.73;;;2.75;;
21786;SDS011;11055;50.870;4.316;2023-04-25T07:52:12;13.88;;;2.85;;
21786;SDS011;11055;50.870;4.316;2023-04-25T07:54:38;8.77;;;2.60;;
21786;SDS011;11055;50.870;4.316;2023-04-25T07:57:03;9.43;;;2.75;;
21786;SDS011;11055;50.870;4.316;2023-04-25T07:59:38;9.20;;;2.17;;
21786;SDS011;11055;50.870;4.316;2023-04-25T08:02:04;8.82;;;2.58;;
21786;SDS011;11055;50.870;4.316;2023-04-25T08:04:30;13.38;;;2.83;;
21786;SDS011;11055;50.870;4.316;2023-04-25T08:06:56;10.57;;;3.53;;
21786;SDS011;11055;50.870;4.316;2023-04-25T08:09:22;10.18;;;2.90;;
21786;SDS011;11055;50.870;4.316;2023-04-25T08:11:47;8.90;;;2.50;;
21786;SDS011;11055;50.870;4.316;2023-04-25T08:14:13;11.05;;;3.05;;
21786;SDS011;11055;50.870;4.316;2023-04-25T08:16:39;9.85;;;2.33;;
21786;SDS011;11055;50.870;4.316;2023-04-25T08:19:05;12.52;;;3.08;;
21786;SDS011;11055;50.870;4.316;2023-04-25T08:21:31;7.85;;;2.58;;
21786;SDS011;11055;50.870;4.316;2023-04-25T08:23:57;10.30;;;2.50;;
21786;SDS011;11055;50.870;4.316;2023-04-25T08:26:23;7.05;;;2.30;;
21786;SDS011;11055;50.870;4.316;2023-04-25T08:28:50;8.40;;;2.05;;
21786;SDS011;11055;50.870;4.316;2023-04-25T08:31:16;9.82;;;2.78;;
21786;SDS011;11055;50.870;4.316;2023-04-25T08:33:42;11.48;;;2.65;;
21786;SDS011;11055;50.870;4.316;2023-04-25T08:36:08;12.30;;;2.80;;
21786;SDS011;11055;50.870;4.316;2023-04-25T08:38:34;10.25;;;2.50;;
21786;SDS011;11055;50.870;4.316;2023-04-25T08:41:01;8.20;;;2.63;;
21786;SDS011;11055;50.870;4.316;2023-04-25T08:43:27;9.18;;;2.35;;
21786;SDS011;11055;50.870;4.316;2023-04-25T08:45:57;11.20;;;2.58;;
21786;SDS011;11055;50.870;4.316;2023-04-25T08:48:25;9.00;;;2.40;;
21786;SDS011;11055;50.870;4.316;2023-04-25T08:50:54;8.23;;;2.47;;
21786;SDS011;11055;50.870;4.316;2023-04-25T08:53:22;7.10;;;2.45;;
21786;SDS011;11055;50.870;4.316;2023-04-25T08:58:21;9.27;;;1.88;;
21786;SDS011;11055;50.870;4.316;2023-04-25T09:00:48;6.72;;;1.98;;
21786;SDS011;11055;50.870;4.316;2023-04-25T09:03:15;7.43;;;2.35;;
21786;SDS011;11055;50.870;4.316;2023-04-25T09:05:41;5.93;;;1.52;;
21786;SDS011;11055;50.870;4.316;2023-04-25T09:08:07;7.53;;;2.28;;
21786;SDS011;11055;50.870;4.316;2023-04-25T09:10:34;7.97;;;1.90;;
21786;SDS011;11055;50.870;4.316;2023-04-25T09:13:46;11.13;;;3.10;;
21786;SDS011;11055;50.870;4.316;2023-04-25T09:15:53;6.90;;;2.08;;
21786;SDS011;11055;50.870;4.316;2023-04-25T09:21:10;8.05;;;1.70;;
21786;SDS011;11055;50.870;4.316;2023-04-25T09:26:06;6.43;;;2.20;;
21786;SDS011;11055;50.870;4.316;2023-04-25T09:28:32;9.95;;;2.28;;
21786;SDS011;11055;50.870;4.316;2023-04-25T09:31:00;5.93;;;2.00;;
21786;SDS011;11055;50.870;4.316;2023-04-25T09:33:29;12.60;;;2.40;;
21786;SDS011;11055;50.870;4.316;2023-04-25T09:36:03;10.90;;;2.72;;
21786;SDS011;11055;50.870;4.316;2023-04-25T09:38:30;7.93;;;2.67;;
21786;SDS011;11055;50.870;4.316;2023-04-25T09:40:57;6.03;;;1.90;;
21786;SDS011;11055;50.870;4.316;2023-04-25T09:43:23;8.30;;;2.05;;
21786;SDS011;11055;50.870;4.316;2023-04-25T09:45:50;7.43;;;2.00;;
21786;SDS011;11055;50.870;4.316;2023-04-25T09:48:19;6.72;;;2.05;;
21786;SDS011;11055;50.870;4.316;2023-04-25T09:51:19;5.35;;;2.13;;
21786;SDS011;11055;50.870;4.316;2023-04-25T09:53:42;7.20;;;3.05;;
21786;SDS011;11055;50.870;4.316;2023-04-25T09:56:11;3.53;;;1.42;;
21786;SDS011;11055;50.870;4.316;2023-04-25T09:58:38;5.95;;;1.58;;
21786;SDS011;11055;50.870;4.316;2023-04-25T10:01:08;5.25;;;1.50;;
21786;SDS011;11055;50.870;4.316;2023-04-25T10:03:39;5.80;;;1.90;;
21786;SDS011;11055;50.870;4.316;2023-04-25T10:06:12;3.22;;;1.38;;
21786;SDS011;11055;50.870;4.316;2023-04-25T10:08:42;7.53;;;1.55;;
21786;SDS011;11055;50.870;4.316;2023-04-25T10:11:09;3.90;;;1.35;;
21786;SDS011;11055;50.870;4.316;2023-04-25T10:13:35;3.17;;;1.33;;
21786;SDS011;11055;50.870;4.316;2023-04-25T10:16:02;3.78;;;1.40;;
21786;SDS011;11055;50.870;4.316;2023-04-25T10:18:31;4.18;;;1.35;;
21786;SDS011;11055;50.870;4.316;2023-04-25T10:20:58;4.85;;;1.45;;
21786;SDS011;11055;50.870;4.316;2023-04-25T10:23:25;4.88;;;1.27;;
21786;SDS011;11055;50.870;4.316;2023-04-25T10:25:52;4.85;;;1.42;;
21786;SDS011;11055;50.870;4.316;2023-04-25T10:28:19;5.15;;;1.38;;
21786;SDS011;11055;50.870;4.316;2023-04-25T10:33:33;2.78;;;1.30;;
21786;SDS011;11055;50.870;4.316;2023-04-25T10:36:12;2.90;;;1.35;;
21786;SDS011;11055;50.870;4.316;2023-04-25T10:38:49;3.47;;;1.50;;
21786;SDS011;11055;50.870;4.316;2023-04-25T10:41:17;5.15;;;1.67;;
21786;SDS011;11055;50.870;4.316;2023-04-25T10:43:44;5.30;;;1.45;;
21786;SDS011;11055;50.870;4.316;2023-04-25T10:46:18;8.68;;;1.40;;
21786;SDS011;11055;50.870;4.316;2023-04-25T10:48:45;5.30;;;1.38;;
21786;SDS011;11055;50.870;4.316;2023-04-25T10:51:20;4.15;;;1.80;;
21786;SDS011;11055;50.870;4.316;2023-04-25T10:54:01;9.02;;;1.85;;
21786;SDS011;11055;50.870;4.316;2023-04-25T10:59:04;8.10;;;1.90;;
21786;SDS011;11055;50.870;4.316;2023-04-25T11:01:51;7.85;;;2.05;;
21786;SDS011;11055;50.870;4.316;2023-04-25T11:04:21;4.80;;;1.58;;
21786;SDS011;11055;50.870;4.316;2023-04-25T11:09:27;5.80;;;1.60;;
21786;SDS011;11055;50.870;4.316;2023-04-25T11:11:56;5.78;;;1.60;;
21786;SDS011;11055;50.870;4.316;2023-04-25T11:14:23;7.40;;;2.65;;
21786;SDS011;11055;50.870;4.316;2023-04-25T11:16:52;7.43;;;1.60;;
21786;SDS011;11055;50.870;4.316;2023-04-25T11:19:20;5.72;;;1.65;;
21786;SDS011;11055;50.870;4.316;2023-04-25T11:21:46;4.70;;;1.38;;
21786;SDS011;11055;50.870;4.316;2023-04-25T11:24:13;4.63;;;1.30;;
21786;SDS011;11055;50.870;4.316;2023-04-25T11:26:41;5.22;;;1.33;;
21786;SDS011;11055;50.870;4.316;2023-04-25T11:29:08;5.80;;;1.63;;
21786;SDS011;11055;50.870;4.316;2023-04-25T11:31:35;7.63;;;1.55;;
21786;SDS011;11055;50.870;4.316;2023-04-25T11:34:00;4.22;;;1.40;;
21786;SDS011;11055;50.870;4.316;2023-04-25T11:36:26;5.80;;;2.17;;
21786;SDS011;11055;50.870;4.316;2023-04-25T11:38:52;3.67;;;1.10;;
21786;SDS011;11055;50.870;4.316;2023-04-25T11:41:21;7.03;;;2.25;;
21786;SDS011;11055;50.870;4.316;2023-04-25T11:43:48;6.30;;;1.63;;
21786;SDS011;11055;50.870;4.316;2023-04-25T11:46:22;3.08;;;1.23;;
21786;SDS011;11055;50.870;4.316;2023-04-25T11:48:48;6.40;;;1.30;;
21786;SDS011;11055;50.870;4.316;2023-04-25T11:51:15;5.47;;;1.50;;
21786;SDS011;11055;50.870;4.316;2023-04-25T11:53:44;5.78;;;1.52;;
21786;SDS011;11055;50.870;4.316;2023-04-25T11:56:11;4.35;;;1.45;;
21786;SDS011;11055;50.870;4.316;2023-04-25T12:01:31;6.20;;;1.35;;
21786;SDS011;11055;50.870;4.316;2023-04-25T12:06:45;6.05;;;1.40;;
21786;SDS011;11055;50.870;4.316;2023-04-25T12:09:12;7.00;;;1.63;;
21786;SDS011;11055;50.870;4.316;2023-04-25T12:11:44;3.13;;;1.40;;
21786;SDS011;11055;50.870;4.316;2023-04-25T12:14:12;3.05;;;1.73;;
21786;SDS011;11055;50.870;4.316;2023-04-25T12:16:59;4.55;;;1.50;;
21786;SDS011;11055;50.870;4.316;2023-04-25T12:19:26;3.85;;;1.30;;
21786;SDS011;11055;50.870;4.316;2023-04-25T12:22:01;2.72;;;1.08;;
21786;SDS011;11055;50.870;4.316;2023-04-25T12:24:28;4.38;;;1.08;;
21786;SDS011;11055;50.870;4.316;2023-04-25T12:27:03;2.80;;;1.17;;
21786;SDS011;11055;50.870;4.316;2023-04-25T12:29:31;3.75;;;1.25;;
21786;SDS011;11055;50.870;4.316;2023-04-25T12:31:59;3.72;;;1.00;;
21786;SDS011;11055;50.870;4.316;2023-04-25T12:34:26;3.33;;;1.25;;
21786;SDS011;11055;50.870;4.316;2023-04-25T12:36:53;1.30;;;0.80;;
21786;SDS011;11055;50.870;4.316;2023-04-25T12:39:19;2.88;;;1.38;;
21786;SDS011;11055;50.870;4.316;2023-04-25T12:41:47;3.25;;;1.15;;
21786;SDS011;11055;50.870;4.316;2023-04-25T12:44:21;3.50;;;1.38;;
21786;SDS011;11055;50.870;4.316;2023-04-25T12:46:46;4.28;;;1.48;;
21786;SDS011;11055;50.870;4.316;2023-04-25T12:49:13;1.85;;;1.30;;
21786;SDS011;11055;50.870;4.316;2023-04-25T12:51:41;3.05;;;1.20;;
21786;SDS011;11055;50.870;4.316;2023-04-25T12:54:09;4.32;;;1.50;;
21786;SDS011;11055;50.870;4.316;2023-04-25T12:56:36;2.25;;;1.10;;
21786;SDS011;11055;50.870;4.316;2023-04-25T12:59:02;5.88;;;1.58;;
21786;SDS011;11055;50.870;4.316;2023-04-25T13:01:30;3.10;;;1.25;;
21786;SDS011;11055;50.870;4.316;2023-04-25T13:03:56;5.80;;;1.45;;
21786;SDS011;11055;50.870;4.316;2023-04-25T13:06:23;6.15;;;1.50;;
21786;SDS011;11055;50.870;4.316;2023-04-25T13:08:50;5.20;;;1.70;;
21786;SDS011;11055;50.870;4.316;2023-04-25T13:11:19;4.70;;;1.20;;
21786;SDS011;11055;50.870;4.316;2023-04-25T13:13:45;6.70;;;1.90;;
21786;SDS011;11055;50.870;4.316;2023-04-25T13:16:12;4.50;;;1.48;;
21786;SDS011;11055;50.870;4.316;2023-04-25T13:18:41;5.20;;;1.70;;
21786;SDS011;11055;50.870;4.316;2023-04-25T13:21:08;3.67;;;1.42;;
21786;SDS011;11055;50.870;4.316;2023-04-25T13:23:35;2.13;;;0.90;;
21786;SDS011;11055;50.870;4.316;2023-04-25T13:26:13;2.00;;;1.02;;
21786;SDS011;11055;50.870;4.316;2023-04-25T13:28:42;2.72;;;1.38;;
21786;SDS011;11055;50.870;4.316;2023-04-25T13:31:08;3.85;;;1.33;;
21786;SDS011;11055;50.870;4.316;2023-04-25T13:33:37;1.58;;;0.95;;
21786;SDS011;11055;50.870;4.316;2023-04-25T13:36:03;3.65;;;1.00;;
21786;SDS011;11055;50.870;4.316;2023-04-25T13:38:30;4.13;;;1.40;;
21786;SDS011;11055;50.870;4.316;2023-04-25T13:40:56;4.93;;;1.10;;
21786;SDS011;11055;50.870;4.316;2023-04-25T13:43:21;4.25;;;1.33;;
21786;SDS011;11055;50.870;4.316;2023-04-25T13:45:48;5.22;;;1.20;;
21786;SDS011;11055;50.870;4.316;2023-04-25T13:48:14;5.53;;;1.40;;
21786;SDS011;11055;50.870;4.316;2023-04-25T13:50:40;4.93;;;1.25;;
21786;SDS011;11055;50.870;4.316;2023-04-25T13:53:06;3.08;;;1.30;;
21786;SDS011;11055;50.870;4.316;2023-04-25T13:55:33;2.55;;;0.95;;
21786;SDS011;11055;50.870;4.316;2023-04-25T13:58:00;5.88;;;1.40;;
21786;SDS011;11055;50.870;4.316;2023-04-25T14:02:58;3.53;;;1.17;;
21786;SDS011;11055;50.870;4.316;2023-04-25T14:05:25;5.25;;;1.65;;
21786;SDS011;11055;50.870;4.316;2023-04-25T14:07:50;2.10;;;1.20;;
21786;SDS011;11055;50.870;4.316;2023-04-25T14:10:17;5.72;;;1.52;;
21786;SDS011;11055;50.870;4.316;2023-04-25T14:12:42;4.43;;;1.58;;
21786;SDS011;11055;50.870;4.316;2023-04-25T14:15:08;4.25;;;1.10;;
21786;SDS011;11055;50.870;4.316;2023-04-25T14:17:36;6.85;;;2.25;;
21786;SDS011;11055;50.870;4.316;2023-04-25T14:20:03;3.55;;;1.30;;
21786;SDS011;11055;50.870;4.316;2023-04-25T14:22:30;4.78;;;1.20;;
21786;SDS011;11055;50.870;4.316;2023-04-25T14:24:56;5.32;;;1.10;;
21786;SDS011;11055;50.870;4.316;2023-04-25T14:27:23;7.90;;;1.30;;
21786;SDS011;11055;50.870;4.316;2023-04-25T14:29:49;6.82;;;1.40;;
21786;SDS011;11055;50.870;4.316;2023-04-25T14:32:15;5.72;;;1.60;;
21786;SDS011;11055;50.870;4.316;2023-04-25T14:34:41;4.18;;;1.15;;
21786;SDS011;11055;50.870;4.316;2023-04-25T14:37:07;6.85;;;1.30;;
21786;SDS011;11055;50.870;4.316;2023-04-25T14:39:32;4.57;;;1.17;;
21786;SDS011;11055;50.870;4.316;2023-04-25T14:41:58;5.47;;;1.52;;
21786;SDS011;11055;50.870;4.316;2023-04-25T14:44:24;4.55;;;1.58;;
21786;SDS011;11055;50.870;4.316;2023-04-25T14:46:49;4.82;;;1.65;;
21786;SDS011;11055;50.870;4.316;2023-04-25T14:49:16;4.93;;;1.27;;
21786;SDS011;11055;50.870;4.316;2023-04-25T14:51:42;4.47;;;1.33;;
21786;SDS011;11055;50.870;4.316;2023-04-25T14:54:08;5.72;;;1.70;;
21786;SDS011;11055;50.870;4.316;2023-04-25T14:56:33;4.15;;;1.27;;
21786;SDS011;11055;50.870;4.316;2023-04-25T14:58:59;10.27;;;1.70;;
21786;SDS011;11055;50.870;4.316;2023-04-25T15:01:25;5.80;;;1.20;;
21786;SDS011;11055;50.870;4.316;2023-04-25T15:03:51;2.83;;;1.33;;